createdAt,value
2022-09-16T00:00:45.617Z,98.24
2022-09-16T00:01:45.679Z,98.38
2022-09-16T00:02:45.614Z,98.38
2022-09-16T00:03:46.565Z,98.33
2022-09-16T00:04:46.463Z,98.38
2022-09-16T00:05:46.363Z,98.38
2022-09-16T00:06:45.522Z,98.49
2022-09-16T00:07:45.624Z,98.49
2022-09-16T00:08:45.520Z,98.58
2022-09-16T00:09:46.494Z,98.58
2022-09-16T00:10:45.528Z,98.69
2022-09-16T00:11:45.491Z,98.58
2022-09-16T00:12:45.520Z,98.38
2022-09-16T00:13:45.502Z,98.53
2022-09-16T00:14:45.759Z,98.94
2022-09-16T00:15:45.406Z,98.99
2022-09-16T00:16:45.517Z,98.99
2022-09-16T00:17:45.607Z,98.94
2022-09-16T00:18:45.365Z,99.04
2022-09-16T00:19:45.426Z,99.20
2022-09-16T00:20:45.762Z,99.10
2022-09-16T00:21:45.346Z,98.90
2022-09-16T00:22:45.345Z,98.79
2022-09-16T00:23:45.400Z,98.58
2022-09-16T00:24:45.335Z,98.38
2022-09-16T00:25:45.327Z,98.18
2022-09-16T00:26:45.304Z,97.97
2022-09-16T00:27:45.238Z,97.92
2022-09-16T00:28:45.235Z,97.92
2022-09-16T00:29:45.228Z,97.82
2022-09-16T00:30:45.436Z,97.82
2022-09-16T00:31:45.340Z,97.72
2022-09-16T00:32:45.209Z,97.72
2022-09-16T00:33:45.205Z,97.77
2022-09-16T00:34:45.291Z,97.77
2022-09-16T00:35:45.259Z,97.77
2022-09-16T00:36:45.171Z,97.77
2022-09-16T00:37:45.111Z,97.97
2022-09-16T00:38:45.153Z,98.07
2022-09-16T00:39:45.119Z,98.18
2022-09-16T00:40:45.170Z,98.28
2022-09-16T00:41:45.179Z,98.49
2022-09-16T00:42:45.181Z,98.38
2022-09-16T00:43:45.288Z,98.28
2022-09-16T00:44:45.181Z,98.18
2022-09-16T00:45:45.172Z,98.18
2022-09-16T00:46:45.130Z,98.18
2022-09-16T00:47:45.013Z,98.18
2022-09-16T00:48:45.070Z,98.07
2022-09-16T00:49:45.012Z,98.18
2022-09-16T00:50:44.958Z,98.07
2022-09-16T00:51:45.294Z,98.12
2022-09-16T00:52:44.956Z,98.33
2022-09-16T00:53:45.079Z,98.43
2022-09-16T00:54:44.924Z,98.74
2022-09-16T00:55:46.175Z,98.94
2022-09-16T00:56:46.071Z,98.83
2022-09-16T00:57:44.995Z,98.63
2022-09-16T00:58:44.971Z,98.74
2022-09-16T00:59:44.835Z,98.74
2022-09-16T01:00:45.141Z,98.83
2022-09-16T01:01:45.043Z,99.15
2022-09-16T01:02:44.816Z,99.04
2022-09-16T01:03:44.807Z,99.04
2022-09-16T01:04:44.863Z,98.83
2022-09-16T01:05:44.772Z,98.83
2022-09-16T01:06:44.775Z,98.94
2022-09-16T01:07:44.736Z,98.94
2022-09-16T01:08:44.764Z,99.15
2022-09-16T01:09:44.758Z,99.15
2022-09-16T01:10:44.697Z,99.10
2022-09-16T01:11:44.748Z,98.90
2022-09-16T01:12:44.746Z,98.79
2022-09-16T01:13:44.725Z,98.69
2022-09-16T01:14:45.888Z,98.69
2022-09-16T01:15:44.698Z,98.69
2022-09-16T01:16:44.720Z,98.69
2022-09-16T01:17:44.728Z,98.58
2022-09-16T01:18:44.618Z,98.49
2022-09-16T01:19:44.623Z,98.49
2022-09-16T01:20:44.867Z,98.33
2022-09-16T01:21:44.637Z,98.24
2022-09-16T01:22:44.544Z,98.38
2022-09-16T01:23:44.582Z,98.49
2022-09-16T01:24:44.614Z,98.44
2022-09-16T01:25:44.980Z,98.33
2022-09-16T01:26:44.860Z,98.33
2022-09-16T01:27:44.582Z,98.44
2022-09-16T01:28:44.537Z,98.44
2022-09-16T01:29:45.065Z,98.44
2022-09-16T01:30:44.996Z,98.33
2022-09-16T01:31:44.530Z,98.24
2022-09-16T01:32:44.487Z,98.24
2022-09-16T01:33:44.409Z,97.98
2022-09-16T01:34:44.402Z,98.03
2022-09-16T01:35:44.443Z,98.03
2022-09-16T01:36:44.372Z,98.03
2022-09-16T01:37:44.367Z,97.98
2022-09-16T01:38:44.440Z,97.98
2022-09-16T01:39:44.357Z,97.98
2022-09-16T01:40:44.351Z,97.98
2022-09-16T01:41:44.541Z,97.98
2022-09-16T01:42:44.324Z,97.78
2022-09-16T01:43:44.294Z,97.67
2022-09-16T01:44:44.342Z,97.57
2022-09-16T01:45:44.241Z,97.47
2022-09-16T01:46:44.307Z,97.47
2022-09-16T01:47:44.383Z,97.47
2022-09-16T01:48:44.216Z,97.12
2022-09-16T01:49:45.083Z,96.92
2022-09-16T01:50:44.290Z,96.92
2022-09-16T01:51:44.165Z,96.92
2022-09-16T01:52:44.183Z,96.61
2022-09-16T01:53:44.176Z,96.61
2022-09-16T01:54:44.135Z,96.71
2022-09-16T01:55:44.228Z,96.61
2022-09-16T01:56:44.244Z,96.71
2022-09-16T01:57:44.105Z,96.71
2022-09-16T01:58:44.124Z,96.71
2022-09-16T01:59:44.209Z,96.92
2022-09-16T02:00:44.049Z,96.92
2022-09-16T02:01:44.120Z,96.92
2022-09-16T02:02:44.128Z,96.92
2022-09-16T02:03:44.007Z,96.92
2022-09-16T02:04:44.019Z,96.81
2022-09-16T02:05:44.016Z,96.81
2022-09-16T02:06:44.988Z,96.92
2022-09-16T02:07:44.896Z,96.71
2022-09-16T02:08:44.107Z,96.51
2022-09-16T02:09:43.936Z,96.26
2022-09-16T02:10:44.003Z,96.26
2022-09-16T02:11:43.899Z,96.26
2022-09-16T02:12:43.944Z,96.41
2022-09-16T02:13:43.999Z,96.41
2022-09-16T02:14:43.914Z,96.51
2022-09-16T02:15:43.960Z,96.61
2022-09-16T02:16:44.588Z,96.71
2022-09-16T02:17:43.904Z,96.71
2022-09-16T02:18:43.819Z,96.71
2022-09-16T02:19:44.588Z,96.61
2022-09-16T02:20:44.774Z,96.61
2022-09-16T02:21:46.066Z,96.51
2022-09-16T02:22:43.792Z,96.61
2022-09-16T02:23:43.854Z,96.61
2022-09-16T02:24:43.771Z,96.75
2022-09-16T02:25:43.856Z,96.75
2022-09-16T02:26:44.599Z,96.75
2022-09-16T02:27:43.700Z,96.96
2022-09-16T02:28:43.704Z,97.06
2022-09-16T02:29:43.687Z,97.16
2022-09-16T02:30:43.683Z,97.27
2022-09-16T02:31:43.641Z,96.96
2022-09-16T02:32:44.167Z,96.75
2022-09-16T02:33:44.593Z,96.75
2022-09-16T02:34:44.492Z,96.75
2022-09-16T02:35:43.594Z,96.55
2022-09-16T02:36:45.080Z,96.55
2022-09-16T02:37:43.570Z,96.45
2022-09-16T02:38:43.710Z,96.55
2022-09-16T02:39:43.540Z,96.66
2022-09-16T02:40:43.574Z,96.66
2022-09-16T02:41:43.509Z,96.75
2022-09-16T02:42:43.532Z,96.75
2022-09-16T02:43:43.586Z,96.75
2022-09-16T02:44:43.471Z,96.55
2022-09-16T02:45:43.504Z,96.45
2022-09-16T02:46:44.483Z,96.45
2022-09-16T02:47:43.497Z,96.66
2022-09-16T02:48:43.516Z,96.55
2022-09-16T02:49:43.788Z,96.66
2022-09-16T02:50:43.476Z,96.66
2022-09-16T02:51:43.506Z,96.91
2022-09-16T02:52:43.397Z,96.96
2022-09-16T02:53:43.489Z,96.91
2022-09-16T02:54:43.348Z,97.00
2022-09-16T02:55:43.348Z,96.91
2022-09-16T02:56:43.738Z,97.00
2022-09-16T02:57:43.312Z,97.11
2022-09-16T02:58:44.093Z,97.11
2022-09-16T02:59:43.310Z,97.11
2022-09-16T03:00:43.350Z,97.21
2022-09-16T03:01:43.309Z,97.21
2022-09-16T03:02:43.324Z,97.31
2022-09-16T03:03:43.266Z,97.31
2022-09-16T03:04:43.878Z,97.52
2022-09-16T03:05:43.230Z,97.52
2022-09-16T03:06:43.248Z,97.62
2022-09-16T03:07:43.239Z,97.41
2022-09-16T03:08:43.188Z,97.31
2022-09-16T03:09:43.303Z,97.41
2022-09-16T03:10:43.237Z,97.21
2022-09-16T03:11:44.154Z,97.31
2022-09-16T03:12:43.338Z,97.56
2022-09-16T03:13:43.151Z,97.52
2022-09-16T03:14:43.162Z,97.56
2022-09-16T03:15:43.205Z,97.46
2022-09-16T03:16:46.086Z,97.46
2022-09-16T03:17:43.163Z,97.56
2022-09-16T03:18:43.039Z,97.87
2022-09-16T03:19:43.064Z,98.02
2022-09-16T03:20:43.155Z,98.28
2022-09-16T03:21:43.243Z,98.28
2022-09-16T03:22:43.004Z,98.33
2022-09-16T03:23:43.065Z,98.53
2022-09-16T03:24:43.004Z,98.49
2022-09-16T03:25:42.995Z,98.38
2022-09-16T03:26:42.958Z,98.28
2022-09-16T03:27:42.974Z,98.18
2022-09-16T03:28:42.934Z,98.07
2022-09-16T03:29:45.804Z,98.18
2022-09-16T03:30:43.034Z,98.07
2022-09-16T03:31:42.927Z,98.18
2022-09-16T03:32:42.865Z,98.18
2022-09-16T03:33:42.852Z,98.07
2022-09-16T03:34:42.866Z,97.97
2022-09-16T03:35:42.854Z,97.97
2022-09-16T03:36:42.958Z,97.87
2022-09-16T03:37:42.818Z,97.82
2022-09-16T03:38:43.144Z,97.62
2022-09-16T03:39:42.773Z,97.62
2022-09-16T03:40:42.839Z,97.72
2022-09-16T03:41:42.823Z,97.72
2022-09-16T03:42:42.782Z,97.72
2022-09-16T03:43:42.789Z,97.62
2022-09-16T03:44:42.741Z,97.52
2022-09-16T03:45:42.787Z,97.62
2022-09-16T03:46:42.734Z,97.72
2022-09-16T03:47:42.748Z,97.72
2022-09-16T03:48:42.706Z,97.62
2022-09-16T03:49:42.678Z,97.62
2022-09-16T03:50:43.637Z,97.52
2022-09-16T03:51:42.692Z,97.47
2022-09-16T03:52:42.619Z,97.37
2022-09-16T03:53:42.776Z,97.27
2022-09-16T03:54:42.735Z,97.16
2022-09-16T03:55:42.830Z,97.16
2022-09-16T03:56:42.628Z,97.06
2022-09-16T03:57:42.619Z,97.06
2022-09-16T03:58:42.713Z,97.06
2022-09-16T03:59:42.931Z,96.96
2022-09-16T04:00:42.579Z,96.96
2022-09-16T04:01:43.254Z,96.96
2022-09-16T04:02:42.585Z,96.96
2022-09-16T04:03:42.639Z,96.96
2022-09-16T04:04:42.471Z,97.06
2022-09-16T04:05:42.459Z,97.06
2022-09-16T04:06:43.711Z,97.06
2022-09-16T04:07:42.490Z,97.16
2022-09-16T04:08:42.439Z,97.06
2022-09-16T04:09:42.388Z,97.21
2022-09-16T04:10:43.342Z,97.27
2022-09-16T04:11:42.545Z,97.06
2022-09-16T04:12:42.390Z,97.06
2022-09-16T04:13:42.372Z,97.16
2022-09-16T04:14:42.462Z,97.21
2022-09-16T04:15:42.366Z,97.21
2022-09-16T04:16:45.183Z,97.16
2022-09-16T04:17:43.337Z,97.11
2022-09-16T04:18:42.406Z,97.21
2022-09-16T04:19:43.489Z,97.21
2022-09-16T04:20:43.212Z,97.31
2022-09-16T04:21:42.305Z,97.31
2022-09-16T04:22:42.416Z,97.21
2022-09-16T04:23:42.856Z,97.31
2022-09-16T04:24:42.238Z,97.31
2022-09-16T04:25:42.236Z,97.52
2022-09-16T04:26:42.167Z,97.52
2022-09-16T04:27:42.160Z,97.16
2022-09-16T04:28:42.236Z,96.96
2022-09-16T04:29:42.141Z,96.86
2022-09-16T04:30:42.194Z,96.86
2022-09-16T04:31:42.129Z,96.96
2022-09-16T04:32:42.150Z,96.96
2022-09-16T04:33:42.180Z,96.96
2022-09-16T04:34:42.131Z,96.96
2022-09-16T04:35:42.199Z,96.96
2022-09-16T04:36:42.867Z,96.86
2022-09-16T04:37:42.069Z,96.75
2022-09-16T04:38:42.102Z,96.66
2022-09-16T04:39:42.016Z,96.55
2022-09-16T04:40:43.007Z,96.45
2022-09-16T04:41:41.987Z,96.45
2022-09-16T04:42:42.051Z,96.34
2022-09-16T04:43:41.971Z,96.20
2022-09-16T04:44:41.935Z,96.10
2022-09-16T04:45:41.931Z,96.00
2022-09-16T04:46:42.041Z,96.10
2022-09-16T04:47:42.054Z,96.20
2022-09-16T04:48:41.991Z,96.20
2022-09-16T04:49:41.932Z,96.10
2022-09-16T04:50:41.870Z,95.89
2022-09-16T04:51:41.868Z,95.89
2022-09-16T04:52:42.238Z,95.79
2022-09-16T04:53:42.623Z,95.89
2022-09-16T04:54:42.763Z,95.79
2022-09-16T04:55:42.588Z,95.59
2022-09-16T04:56:41.787Z,95.59
2022-09-16T04:57:41.977Z,95.38
2022-09-16T04:58:41.841Z,95.28
2022-09-16T04:59:42.712Z,95.18
2022-09-16T05:00:41.779Z,95.18
2022-09-16T05:01:41.985Z,94.93
2022-09-16T05:02:41.720Z,94.93
2022-09-16T05:03:42.846Z,95.18
2022-09-16T05:04:41.708Z,95.18
2022-09-16T05:05:41.713Z,95.28
2022-09-16T05:06:41.802Z,95.28
2022-09-16T05:07:42.141Z,95.48
2022-09-16T05:08:41.632Z,95.59
2022-09-16T05:09:41.745Z,95.69
2022-09-16T05:10:41.740Z,95.48
2022-09-16T05:11:41.604Z,95.59
2022-09-16T05:12:41.558Z,95.48
2022-09-16T05:13:41.585Z,95.38
2022-09-16T05:14:41.566Z,94.93
2022-09-16T05:15:41.716Z,94.52
2022-09-16T05:16:41.637Z,94.32
2022-09-16T05:17:50.869Z,94.32
2022-09-16T05:18:42.536Z,94.62
2022-09-16T05:19:41.494Z,94.62
2022-09-16T05:20:41.496Z,94.42
2022-09-16T05:21:41.493Z,94.73
2022-09-16T05:22:42.559Z,94.93
2022-09-16T05:23:46.503Z,94.73
2022-09-16T05:24:42.438Z,94.42
2022-09-16T05:25:41.416Z,94.32
2022-09-16T05:26:41.794Z,94.32
2022-09-16T05:27:41.386Z,94.52
2022-09-16T05:28:41.408Z,94.11
2022-09-16T05:29:41.392Z,94.11
2022-09-16T05:30:42.327Z,94.21
2022-09-16T05:31:41.661Z,94.01
2022-09-16T05:32:42.110Z,93.86
2022-09-16T05:33:42.593Z,93.66
2022-09-16T05:34:41.323Z,93.86
2022-09-16T05:35:42.329Z,94.07
2022-09-16T05:36:41.508Z,93.86
2022-09-16T05:37:42.248Z,93.86
2022-09-16T05:38:41.259Z,93.86
2022-09-16T05:39:41.740Z,93.66
2022-09-16T05:40:41.480Z,93.96
2022-09-16T05:41:41.222Z,94.07
2022-09-16T05:42:41.789Z,94.07
2022-09-16T05:43:41.192Z,94.17
2022-09-16T05:44:41.393Z,94.37
2022-09-16T05:45:41.206Z,94.58
2022-09-16T05:46:41.292Z,93.86
2022-09-16T05:47:41.215Z,94.37
2022-09-16T05:48:41.308Z,94.48
2022-09-16T05:49:41.083Z,94.37
2022-09-16T05:50:42.041Z,94.27
2022-09-16T05:51:41.181Z,94.58
2022-09-16T05:52:41.212Z,94.58
2022-09-16T05:53:41.104Z,94.58
2022-09-16T05:54:41.014Z,94.98
2022-09-16T05:55:41.042Z,94.58
2022-09-16T05:56:41.023Z,94.48
2022-09-16T05:57:41.016Z,94.68
2022-09-16T05:58:40.984Z,94.68
2022-09-16T05:59:42.441Z,94.48
2022-09-16T06:00:41.864Z,94.07
2022-09-16T06:01:41.111Z,94.27
2022-09-16T06:02:41.007Z,94.27
2022-09-16T06:03:41.347Z,93.96
2022-09-16T06:04:40.916Z,94.17
2022-09-16T06:05:45.566Z,94.37
2022-09-16T06:06:42.947Z,94.37
2022-09-16T06:07:40.873Z,94.27
2022-09-16T06:08:40.989Z,94.07
2022-09-16T06:09:41.795Z,93.96
2022-09-16T06:10:41.403Z,94.07
2022-09-16T06:11:40.838Z,93.86
2022-09-16T06:12:40.835Z,93.76
2022-09-16T06:13:40.814Z,93.76
2022-09-16T06:14:40.867Z,93.76
2022-09-16T06:15:41.193Z,93.45
2022-09-16T06:16:40.777Z,93.51
2022-09-16T06:17:40.758Z,93.41
2022-09-16T06:18:40.791Z,93.10
2022-09-16T06:19:40.739Z,92.80
2022-09-16T06:20:40.732Z,92.55
2022-09-16T06:21:41.503Z,92.55
2022-09-16T06:22:40.741Z,92.04
2022-09-16T06:23:41.651Z,91.53
2022-09-16T06:24:40.661Z,91.08
2022-09-16T06:25:41.597Z,90.88
2022-09-16T06:26:40.640Z,91.08
2022-09-16T06:27:40.767Z,90.42
2022-09-16T06:28:40.933Z,91.14
2022-09-16T06:29:40.588Z,90.53
2022-09-16T06:30:40.644Z,90.73
2022-09-16T06:31:40.558Z,91.03
2022-09-16T06:32:40.510Z,91.24
2022-09-16T06:33:40.664Z,90.77
2022-09-16T06:34:40.507Z,90.57
2022-09-16T06:35:40.543Z,90.47
2022-09-16T06:36:44.736Z,90.88
2022-09-16T06:37:42.105Z,91.18
2022-09-16T06:38:40.483Z,91.18
2022-09-16T06:39:40.456Z,90.88
2022-09-16T06:40:40.552Z,90.67
2022-09-16T06:41:40.415Z,91.28
2022-09-16T06:42:40.444Z,90.88
2022-09-16T06:43:40.395Z,91.08
2022-09-16T06:44:41.353Z,90.88
2022-09-16T06:45:40.624Z,90.98
2022-09-16T06:46:40.383Z,91.55
2022-09-16T06:47:40.352Z,90.77
2022-09-16T06:48:41.465Z,90.67
2022-09-16T06:49:40.403Z,90.88
2022-09-16T06:50:41.145Z,90.57
2022-09-16T06:51:40.311Z,90.47
2022-09-16T06:52:40.284Z,90.67
2022-09-16T06:53:41.315Z,90.77
2022-09-16T06:54:40.268Z,90.16
2022-09-16T06:55:41.310Z,90.36
2022-09-16T06:56:40.392Z,90.36
2022-09-16T06:57:40.235Z,90.47
2022-09-16T06:58:40.196Z,89.86
2022-09-16T06:59:41.438Z,89.92
2022-09-16T07:00:40.181Z,89.81
2022-09-16T07:01:40.208Z,89.81
2022-09-16T07:02:41.205Z,89.61
2022-09-16T07:03:41.052Z,89.61
2022-09-16T07:04:40.116Z,89.20
2022-09-16T07:05:41.134Z,89.00
2022-09-16T07:07:42.421Z,88.85
2022-09-16T07:08:40.058Z,88.75
2022-09-16T07:09:40.081Z,88.34
2022-09-16T07:10:40.888Z,88.34
2022-09-16T07:11:40.310Z,88.04
2022-09-16T07:12:41.007Z,88.45
2022-09-16T07:13:40.208Z,88.24
2022-09-16T07:14:41.016Z,87.94
2022-09-16T07:16:02.357Z,88.14
2022-09-16T07:16:41.628Z,88.04
2022-09-16T07:17:41.530Z,87.32
2022-09-16T07:18:39.941Z,87.43
2022-09-16T07:19:41.050Z,87.73
2022-09-16T07:20:39.939Z,87.02
2022-09-16T07:21:39.961Z,86.71
2022-09-16T07:22:40.088Z,86.92
2022-09-16T07:23:40.843Z,86.16
2022-09-16T07:24:40.463Z,86.16
2022-09-16T07:25:40.890Z,85.55
2022-09-16T07:26:39.872Z,85.86
2022-09-16T07:27:40.790Z,84.94
2022-09-16T07:28:39.803Z,84.84
2022-09-16T07:29:39.816Z,84.39
2022-09-16T07:30:40.546Z,84.59
2022-09-16T07:31:39.837Z,84.70
2022-09-16T07:32:39.750Z,84.39
2022-09-16T07:33:39.775Z,83.89
2022-09-16T07:34:40.257Z,84.09
2022-09-16T07:35:39.722Z,84.09
2022-09-16T07:36:39.823Z,83.78
2022-09-16T07:37:42.696Z,83.98
2022-09-16T07:38:39.688Z,83.78
2022-09-16T07:39:39.997Z,83.54
2022-09-16T07:40:39.838Z,83.34
2022-09-16T07:41:39.668Z,83.74
2022-09-16T07:42:40.585Z,83.23
2022-09-16T07:43:40.791Z,83.03
2022-09-16T07:44:40.694Z,82.52
2022-09-16T07:45:40.635Z,83.23
2022-09-16T07:46:39.698Z,82.21
2022-09-16T07:47:39.664Z,82.62
2022-09-16T07:48:39.560Z,82.62
2022-09-16T07:49:39.648Z,82.52
2022-09-16T07:50:39.591Z,83.13
2022-09-16T07:51:40.250Z,82.12
2022-09-16T07:52:39.597Z,82.82
2022-09-16T07:53:40.353Z,82.42
2022-09-16T07:54:39.558Z,82.42
2022-09-16T07:55:40.667Z,82.38
2022-09-16T07:56:39.491Z,81.98
2022-09-16T07:57:39.542Z,82.12
2022-09-16T07:58:39.743Z,82.07
2022-09-16T07:59:39.395Z,81.98
2022-09-16T08:00:39.421Z,82.28
2022-09-16T08:01:43.333Z,82.99
2022-09-16T08:02:40.577Z,83.29
2022-09-16T08:03:40.416Z,83.29
2022-09-16T08:04:39.379Z,82.28
2022-09-16T08:05:40.233Z,82.07
2022-09-16T08:06:39.472Z,83.06
2022-09-16T08:07:39.344Z,81.84
2022-09-16T08:08:39.272Z,80.72
2022-09-16T08:09:44.240Z,81.73
2022-09-16T08:10:40.550Z,81.63
2022-09-16T08:11:39.245Z,81.12
2022-09-16T08:12:40.013Z,81.12
2022-09-16T08:13:39.282Z,80.68
2022-09-16T08:14:39.211Z,80.78
2022-09-16T08:15:39.189Z,80.47
2022-09-16T08:16:39.292Z,80.88
2022-09-16T08:17:40.289Z,80.88
2022-09-16T08:18:39.248Z,80.37
2022-09-16T08:19:39.303Z,79.66
2022-09-16T08:20:39.167Z,79.12
2022-09-16T08:21:39.915Z,78.81
2022-09-16T08:22:39.323Z,78.91
2022-09-16T08:23:40.076Z,79.93
2022-09-16T08:24:39.309Z,78.41
2022-09-16T08:25:39.075Z,80.10
2022-09-16T08:26:40.249Z,79.69
2022-09-16T08:27:39.307Z,79.49
2022-09-16T08:28:45.617Z,78.98
2022-09-16T08:29:40.981Z,79.04
2022-09-16T08:30:39.009Z,78.64
2022-09-16T08:31:39.130Z,78.33
2022-09-16T08:32:38.992Z,77.12
2022-09-16T08:33:40.084Z,76.81
2022-09-16T08:34:39.025Z,76.91
2022-09-16T08:35:39.643Z,77.62
2022-09-16T08:36:38.969Z,77.52
2022-09-16T08:37:38.959Z,77.42
2022-09-16T08:38:38.941Z,77.52
2022-09-16T08:39:38.980Z,76.20
2022-09-16T08:40:38.913Z,75.70
2022-09-16T08:41:39.813Z,75.39
2022-09-16T08:42:38.872Z,75.70
2022-09-16T08:43:38.880Z,75.86
2022-09-16T08:44:38.921Z,75.76
2022-09-16T08:45:39.230Z,73.63
2022-09-16T08:46:40.295Z,74.44
2022-09-16T08:47:38.792Z,74.74
2022-09-16T08:48:38.789Z,75.05
2022-09-16T08:49:43.908Z,74.85
2022-09-16T08:50:39.878Z,74.04
2022-09-16T08:51:39.909Z,73.93
2022-09-16T08:52:38.861Z,72.92
2022-09-16T08:53:38.722Z,73.93
2022-09-16T08:54:38.739Z,74.41
2022-09-16T08:55:38.717Z,74.81
2022-09-16T08:56:41.503Z,72.89
2022-09-16T08:57:38.705Z,72.89
2022-09-16T08:58:38.683Z,72.58
2022-09-16T08:59:38.648Z,73.80
2022-09-16T09:00:38.731Z,73.60
2022-09-16T09:01:39.949Z,73.16
2022-09-16T09:02:39.027Z,71.53
2022-09-16T09:03:39.141Z,73.05
2022-09-16T09:04:38.643Z,73.53
2022-09-16T09:05:38.574Z,71.60
2022-09-16T09:06:38.616Z,71.50
2022-09-16T09:07:38.574Z,69.98
2022-09-16T09:08:38.596Z,71.44
2022-09-16T09:09:38.582Z,71.53
2022-09-16T09:10:38.527Z,71.44
2022-09-16T09:11:39.515Z,70.52
2022-09-16T09:12:39.594Z,69.92
2022-09-16T09:13:38.552Z,70.83
2022-09-16T09:14:39.222Z,70.18
2022-09-16T09:15:38.493Z,70.69
2022-09-16T09:16:38.519Z,69.48
2022-09-16T09:17:48.043Z,69.24
2022-09-16T09:18:39.423Z,69.07
2022-09-16T09:19:39.130Z,68.77
2022-09-16T09:20:38.559Z,68.97
2022-09-16T09:21:39.578Z,67.55
2022-09-16T09:22:39.241Z,66.77
2022-09-16T09:23:38.351Z,66.97
2022-09-16T09:24:38.427Z,67.58
2022-09-16T09:25:38.339Z,67.38
2022-09-16T09:26:38.344Z,66.47
2022-09-16T09:27:38.319Z,66.16
2022-09-16T09:28:38.285Z,67.08
2022-09-16T09:29:39.713Z,67.35
2022-09-16T09:30:38.450Z,67.76
2022-09-16T09:31:39.176Z,68.56
2022-09-16T09:32:48.970Z,68.46
2022-09-16T09:33:46.541Z,67.96
2022-09-16T09:34:41.771Z,68.77
2022-09-16T09:35:38.716Z,68.56
2022-09-16T09:36:38.338Z,67.85
2022-09-16T09:37:39.142Z,68.06
2022-09-16T09:38:38.170Z,68.16
2022-09-16T09:39:38.222Z,66.33
2022-09-16T09:40:38.219Z,66.57
2022-09-16T09:41:38.971Z,66.47
2022-09-16T09:42:38.154Z,66.88
2022-09-16T09:44:38.234Z,68.36
2022-09-16T09:45:38.099Z,67.96
2022-09-16T09:46:38.199Z,67.76
2022-09-16T09:47:38.042Z,67.35
2022-09-16T09:48:39.046Z,66.94
2022-09-16T09:49:38.011Z,66.44
2022-09-16T09:50:39.454Z,66.54
2022-09-16T09:51:38.095Z,66.44
2022-09-16T09:52:38.235Z,66.94
2022-09-16T09:53:37.981Z,67.76
2022-09-16T09:54:37.926Z,67.35
2022-09-16T09:55:38.881Z,67.82
2022-09-16T09:56:38.099Z,66.20
2022-09-16T09:57:38.065Z,66.61
2022-09-16T09:58:37.909Z,65.26
2022-09-16T09:59:37.878Z,64.96
2022-09-16T10:00:38.952Z,65.03
2022-09-16T10:01:37.936Z,63.21
2022-09-16T10:02:37.936Z,63.21
2022-09-16T10:03:37.953Z,62.81
2022-09-16T10:04:39.037Z,61.99
2022-09-16T10:05:37.789Z,62.77
2022-09-16T10:06:38.769Z,62.27
2022-09-16T10:07:38.143Z,62.47
2022-09-16T10:08:37.821Z,61.66
2022-09-16T10:09:37.781Z,62.57
2022-09-16T10:10:37.849Z,61.79
2022-09-16T10:11:38.879Z,61.59
2022-09-16T10:12:37.722Z,62.50
2022-09-16T10:13:37.718Z,62.50
2022-09-16T10:14:37.781Z,62.70
2022-09-16T10:15:37.677Z,62.47
2022-09-16T10:16:37.769Z,62.64
2022-09-16T10:17:37.669Z,61.94
2022-09-16T10:18:37.721Z,62.27
2022-09-16T10:19:37.689Z,62.47
2022-09-16T10:20:38.525Z,62.16
2022-09-16T10:21:37.635Z,61.46
2022-09-16T10:22:37.786Z,61.90
2022-09-16T10:23:37.574Z,62.30
2022-09-16T10:24:37.715Z,63.28
2022-09-16T10:25:37.574Z,62.98
2022-09-16T10:26:37.613Z,61.76
2022-09-16T10:27:38.344Z,61.87
2022-09-16T10:28:37.596Z,62.77
2022-09-16T10:29:38.682Z,61.05
2022-09-16T10:30:37.498Z,61.56
2022-09-16T10:31:37.561Z,61.56
2022-09-16T10:32:37.565Z,62.37
2022-09-16T10:33:37.555Z,61.25
2022-09-16T10:34:37.504Z,60.65
2022-09-16T10:35:37.440Z,61.25
2022-09-16T10:36:37.424Z,61.53
2022-09-16T10:37:37.412Z,61.03
2022-09-16T10:38:37.396Z,60.42
2022-09-16T10:39:37.348Z,60.62
2022-09-16T10:40:37.471Z,61.20
2022-09-16T10:41:37.597Z,60.29
2022-09-16T10:42:37.479Z,60.39
2022-09-16T10:43:37.347Z,59.58
2022-09-16T10:44:38.268Z,58.40
2022-09-16T10:45:37.328Z,58.91
2022-09-16T10:46:37.487Z,60.02
2022-09-16T10:47:37.328Z,59.51
2022-09-16T10:48:37.462Z,60.02
2022-09-16T10:49:38.306Z,60.12
2022-09-16T10:50:37.224Z,60.80
2022-09-16T10:51:37.569Z,59.69
2022-09-16T10:52:37.209Z,59.35
2022-09-16T10:53:39.433Z,58.72
2022-09-16T10:54:39.640Z,58.62
2022-09-16T10:55:38.131Z,58.69
2022-09-16T10:56:37.363Z,58.76
2022-09-16T10:57:37.203Z,58.16
2022-09-16T10:58:37.141Z,56.85
2022-09-16T10:59:37.160Z,56.95
2022-09-16T11:00:37.179Z,56.48
2022-09-16T11:01:41.120Z,57.56
2022-09-16T11:02:38.087Z,57.86
2022-09-16T11:03:37.522Z,57.65
2022-09-16T11:04:37.096Z,56.27
2022-09-16T11:05:37.085Z,56.83
2022-09-16T11:06:37.057Z,57.16
2022-09-16T11:07:36.996Z,58.00
2022-09-16T11:08:37.135Z,56.98
2022-09-16T11:09:36.971Z,57.49
2022-09-16T11:10:36.977Z,57.52
2022-09-16T11:11:37.787Z,57.11
2022-09-16T11:12:36.935Z,58.05
2022-09-16T11:13:36.980Z,58.86
2022-09-16T11:14:36.949Z,58.86
2022-09-16T11:15:36.939Z,58.25
2022-09-16T11:16:36.953Z,57.34
2022-09-16T11:17:37.686Z,57.95
2022-09-16T11:18:36.864Z,57.65
2022-09-16T11:19:36.988Z,57.98
2022-09-16T11:20:36.872Z,57.75
2022-09-16T11:21:36.814Z,57.24
2022-09-16T11:22:36.813Z,57.57
2022-09-16T11:23:36.847Z,56.56
2022-09-16T11:24:36.867Z,56.94
2022-09-16T11:25:36.890Z,56.71
2022-09-16T11:26:37.561Z,55.49
2022-09-16T11:27:37.731Z,55.11
2022-09-16T11:28:36.929Z,55.80
2022-09-16T11:29:36.736Z,54.89
2022-09-16T11:30:36.680Z,55.19
2022-09-16T11:31:36.832Z,55.29
2022-09-16T11:32:37.757Z,54.89
2022-09-16T11:33:36.674Z,53.88
2022-09-16T11:34:36.672Z,53.96
2022-09-16T11:35:36.701Z,54.36
2022-09-16T11:36:37.306Z,54.16
2022-09-16T11:37:36.605Z,54.53
2022-09-16T11:38:36.661Z,54.96
2022-09-16T11:39:37.017Z,54.56
2022-09-16T11:40:36.675Z,55.36
2022-09-16T11:41:36.562Z,56.07
2022-09-16T11:42:36.596Z,55.77
2022-09-16T11:43:36.685Z,55.65
2022-09-16T11:44:36.495Z,53.22
2022-09-16T11:45:36.545Z,52.41
2022-09-16T11:46:36.608Z,52.29
2022-09-16T11:47:40.534Z,53.09
2022-09-16T11:48:36.463Z,52.89
2022-09-16T11:49:36.459Z,52.29
2022-09-16T11:50:37.567Z,53.20
2022-09-16T11:51:37.461Z,53.20
2022-09-16T11:52:36.447Z,53.40
2022-09-16T11:53:40.575Z,53.40
2022-09-16T11:54:36.548Z,53.12
2022-09-16T11:55:36.388Z,53.45
2022-09-16T11:56:37.057Z,54.76
2022-09-16T11:57:36.385Z,54.36
2022-09-16T11:58:36.372Z,53.55
2022-09-16T11:59:36.301Z,52.44
2022-09-16T12:00:36.302Z,52.14
2022-09-16T12:01:36.393Z,52.64
2022-09-16T12:02:36.533Z,52.64
2022-09-16T12:03:37.390Z,52.26
2022-09-16T12:04:38.343Z,52.06
2022-09-16T12:05:36.275Z,52.26
2022-09-16T12:06:37.059Z,52.67
2022-09-16T12:07:36.260Z,52.97
2022-09-16T12:08:36.201Z,52.34
2022-09-16T12:09:36.179Z,52.44
2022-09-16T12:10:36.181Z,52.61
2022-09-16T12:11:36.185Z,52.61
2022-09-16T12:12:36.147Z,53.20
2022-09-16T12:13:36.156Z,53.50
2022-09-16T12:14:36.125Z,53.09
2022-09-16T12:15:36.279Z,53.47
2022-09-16T12:16:36.311Z,52.97
2022-09-16T12:17:36.096Z,53.17
2022-09-16T12:18:36.141Z,52.56
2022-09-16T12:19:37.025Z,52.87
2022-09-16T12:20:36.214Z,52.87
2022-09-16T12:21:36.045Z,52.56
2022-09-16T12:22:36.036Z,53.65
2022-09-16T12:23:36.141Z,53.05
2022-09-16T12:24:36.859Z,52.51
2022-09-16T12:25:36.768Z,51.08
2022-09-16T12:26:35.993Z,51.76
2022-09-16T12:27:37.087Z,50.65
2022-09-16T12:28:36.139Z,49.07
2022-09-16T12:29:36.118Z,49.77
2022-09-16T12:30:36.138Z,49.37
2022-09-16T12:31:35.964Z,49.75
2022-09-16T12:32:35.911Z,49.04
2022-09-16T12:33:37.037Z,49.85
2022-09-16T12:34:35.958Z,48.03
2022-09-16T12:35:36.270Z,48.46
2022-09-16T12:36:36.197Z,48.74
2022-09-16T12:37:35.814Z,48.82
2022-09-16T12:38:35.862Z,49.50
2022-09-16T12:39:35.912Z,49.12
2022-09-16T12:40:35.898Z,49.10
2022-09-16T12:41:35.785Z,47.49
2022-09-16T12:42:35.908Z,48.92
2022-09-16T12:43:36.416Z,49.22
2022-09-16T12:44:35.959Z,48.79
2022-09-16T12:45:36.686Z,47.89
2022-09-16T12:46:36.318Z,48.32
2022-09-16T12:47:35.705Z,48.14
2022-09-16T12:48:35.677Z,48.61
2022-09-16T12:49:35.675Z,48.32
2022-09-16T12:50:35.712Z,48.11
2022-09-16T12:51:35.696Z,47.81
2022-09-16T12:52:35.756Z,48.01
2022-09-16T12:53:35.629Z,47.99
2022-09-16T12:54:51.134Z,47.86